Hauptseite
METAR-TAF:

METAR-TAF

Flughäfen :

Flughafen Augsburg

Augsburg, Deutschland

Breite: 48-26N, Länge: 010-56E, Höhe: 461 m

Beobachtung

Neuester Wetterbericht von vor 23 Minuten, um 00:20 UTC
Wind 8 kt aus Südost
Temperatur 3°C
Luftfeuchtigkeit 93%
Luftdruck 1004 hPa
Sichtweite 10 km oder mehr

METAR: EDMA 130020Z AUTO 14008KT 9999 // BKN010/// OVC041/// 03/02 Q1004

Zeit: 01:43 (00:43 UTC)

Prognose

Neuester Wetterbericht von vor 7 Stunden und 43 Minuten, um 17:00 UTC
Gültige Prognose vom 12 um 18 UTC bis 13 um 03 UTC
Wind 5 kt aus Süd/Südost
Sichtweite 10 km oder mehr
Durchbrochene Bewölkung in der Höhe von 4500 ft
Zeitweise
vom 13 um 00 UTC bis 13 um 03 UTC
Sichtweite: 4000 m
Durchbrochene Bewölkung in der Höhe von 1200 ft
Leichtregen, Schnee

TAF: EDMA 121700Z 1218/1303 16005KT 9999 BKN045 TEMPO 1300/1303 4000 -RASN BKN012

Wetterbeobachtungen und Prognosen von mehr als 4000 Flughäfen (METAR und TAF Bericht).

Die verfügbaren Stationen werden durch gelbe und rote Markierungen auf der Karte dargestellt.

Führen Sie die Maus auf sie, um den Namen der Station zu sehen.

Darauf klicken, um die Beobachtung von Wetterbeobachtungen und Prognosen zu sehen.

Um die Karte zu ändern : klicken Sie auf den grünen Tasten mit einem schwarzen Kreuz Zum Vergrößern, auf den grünen Button mit einem Gedankenstrich zu verkleinern, oder auf die grünen Pfeile für benachbarte Karten.


METAR-TAF: